Ole-arvid Nergaard — LLAY — position and weather

sailwx.info

Track history (hours):
 
Tides and Currents Weather Stations Pressure Air Temp Water Temp Dewpoint Dewpoint Depression Visibility Wind Speed Wind Dir Waves Ship Positions

Ole-arvid Nergaard

Last reported at 2014-Oct-29 20:27 UTC. Time now 2014-Oct-31 07:34 UTC.
Position N 69°46' E 019°09'.

Length 55 m; draft 7.2 m.

Type: Fishing. MMSI: 259656000.

Date/timePositionNaut miles runAvg speedWind from/ knotsBaromVisibWave heightAir tempDewpointWater temp
2014-Oct-29 20:27N 69°46' E 019°09'7 7.8
2014-Oct-29 19:33N 69°40' E 018°59'0 0.0
2014-Oct-29 18:34N 69°40' E 018°59'0 0.0
2014-Oct-29 17:34N 69°40' E 018°59'2 2.4
2014-Oct-29 16:33N 69°42' E 019°04'0 0.0
2014-Oct-29 15:29N 69°42' E 019°05'5 5.4
2014-Oct-29 14:33N 69°38' E 018°57'0 0.0
2014-Oct-29 13:34N 69°38' E 018°57'0 0.0
2014-Oct-29 12:34N 69°38' E 018°57'0 0.0
2014-Oct-29 11:34N 69°38' E 018°57'0 0.0
2014-Oct-29 10:34N 69°38' E 018°57'0 0.0
2014-Oct-29 09:34N 69°38' E 018°57'0 0.0
2014-Oct-29 08:33N 69°38' E 018°57'0 0.0
2014-Oct-29 07:33N 69°38' E 018°57'0 0.0
2014-Oct-29 06:34N 69°38' E 018°57'0 0.0
2014-Oct-29 05:34N 69°38' E 018°57'9 8.2
2014-Oct-29 04:30N 69°46' E 019°06'  
Track history (hours):
 
Tides and Currents Weather Stations Pressure Air Temp Water Temp Dewpoint Dewpoint Depression Visibility Wind Speed Wind Dir Waves Ship Positions

Ole-arvid Nergaard

Last reported at 2014-Oct-29 20:27 UTC. Time now 2014-Oct-31 07:34 UTC.
Position N 69°46' E 019°09'.

Length 55 m; draft 7.2 m.

Type: Fishing. MMSI: 259656000.

Date/timePositionNaut miles runAvg speedWind from/ knotsBaromVisibWave heightAir tempDewpointWater temp
2014-Oct-29 20:27N 69°46' E 019°09'7 7.8
2014-Oct-29 19:33N 69°40' E 018°59'0 0.0
2014-Oct-29 18:34N 69°40' E 018°59'0 0.0
2014-Oct-29 17:34N 69°40' E 018°59'2 2.4
2014-Oct-29 16:33N 69°42' E 019°04'0 0.0
2014-Oct-29 15:29N 69°42' E 019°05'5 5.4
2014-Oct-29 14:33N 69°38' E 018°57'0 0.0
2014-Oct-29 13:34N 69°38' E 018°57'0 0.0
2014-Oct-29 12:34N 69°38' E 018°57'0 0.0
2014-Oct-29 11:34N 69°38' E 018°57'0 0.0
2014-Oct-29 10:34N 69°38' E 018°57'0 0.0
2014-Oct-29 09:34N 69°38' E 018°57'0 0.0
2014-Oct-29 08:33N 69°38' E 018°57'0 0.0
2014-Oct-29 07:33N 69°38' E 018°57'0 0.0
2014-Oct-29 06:34N 69°38' E 018°57'0 0.0
2014-Oct-29 05:34N 69°38' E 018°57'9 8.2
2014-Oct-29 04:30N 69°46' E 019°06'  

Dump ship's entire track history